To NAV CANADA Home Page Login to a new session Search on AWWS site Disclaimer Vers la page française équivalente Tips FAQ What's new on the site To the Forecasts and Observations / NOTAM section To "File a Flight Plan" website Publications and other links Update of the User's profile FIC Telephone Numbers My Weather Data Folder Route Weather Data Regional Weather Data Local Weather Data To the Forecasts and Observations / NOTAM section
Request Generated 04/24/2019 at 16:01:03 UTC . Weather information available at that time is displayed.

METAR/TAF

CHURCHILL/MB    (show WxCam)

SPECI CYYQ 241553Z 27007KT 15SM BKN009 OVC014 05/03 A2930 RMK SC6SC2 SLP926=
SPECI CYYQ 241538Z 27010KT 220V280 15SM BKN014 BKN029 OVC090 06/03 A2930 RMK SC5SC2AC1 SLP927=
METAR CYYQ 241500Z 22005KT 15SM BKN031 05/02 A2931 RMK SC7 SLP928=
METAR CYYQ 241400Z 18005KT 15SM FEW055 BKN091 BKN120 03/01 A2932 RMK SC2AC4AC1 SLP933=
METAR CYYQ 241300Z 18007KT 15SM BKN075 BKN093 03/01 A2934 RMK AC7AC1 AC TR SLP939=

TAF CYYQ 241138Z 2412/2512 18010KT P6SM -RA SCT015 OVC050 TEMPO
2412/2418 4SM -SHRA BR OVC015
BECMG 2416/2418 27012KT
FM241800 27012KT P6SM SCT006 OVC015 TEMPO 2418/2422 4SM -DZ BR
OVC006
BECMG 2418/2420 32015KT
FM242200 32020G30KT 4SM -RASN SCT004 OVC008 TEMPO 2422/2501
11/2SM -SHSN OVC004
FM250100 34025G35KT 1SM -SHSN OVC004
FM250500 35025G35KT 2SM -SHSN OVC010
FM250800 35025G35KT 6SM -SN OVC010
RMK NXT FCST BY 241800Z=
Your time UTC time
Weather data provided by Environment Canada and NAV CANADA